Time;durP1;ratioP1;P1;durP2;ratioP2;P2;SDS_P1;SDS_P2;PMS_P1;PMS_P2;Temp;Humidity;BMP_temperature;BMP_pressure;BME280_temperature;BME280_humidity;BME280_pressure;Samples;Min_cycle;Max_cycle;Signal;HPM_P1;HPM_P2
2022/10/29 00:01:51;;;;;;;22.67;10.43;;;;;;;;;;5035846;28;20060;-79
2022/10/29 00:04:17;;;;;;;23.98;11.10;;;;;;;;;;5035899;28;20140;-79
2022/10/29 00:06:43;;;;;;;31.92;11.27;;;;;;;;;;5035613;28;20484;-79
2022/10/29 00:09:09;;;;;;;24.63;10.68;;;;;;;;;;5035482;28;20085;-79
2022/10/29 00:11:35;;;;;;;24.25;12.15;;;;;;;;;;5035900;28;20053;-79
2022/10/29 00:14:01;;;;;;;20.48;11.73;;;;;;;;;;5018098;28;20053;-79
2022/10/29 00:16:29;;;;;;;26.60;10.95;;;;;;;;;;5035288;28;20041;-79
2022/10/29 00:18:56;;;;;;;24.42;12.02;;;;;;;;;;5031879;28;20443;-79
2022/10/29 00:21:24;;;;;;;23.80;11.57;;;;;;;;;;5035697;28;20168;-79
2022/10/29 00:23:51;;;;;;;30.02;11.88;;;;;;;;;;5035498;28;20171;-79
2022/10/29 00:26:18;;;;;;;25.95;11.45;;;;;;;;;;5033982;28;20460;-79
2022/10/29 00:28:44;;;;;;;21.55;10.80;;;;;;;;;;5035647;28;20041;-79
2022/10/29 00:31:17;;;;;;;30.77;11.93;;;;;;;;;;5034360;28;20052;-79
2022/10/29 00:33:44;;;;;;;22.95;10.85;;;;;;;;;;5035534;28;20065;-79
2022/10/29 00:36:15;;;;;;;25.50;11.18;;;;;;;;;;5036054;28;20041;-79
2022/10/29 00:38:41;;;;;;;23.05;11.20;;;;;;;;;;5036586;28;20041;-79
2022/10/29 00:41:08;;;;;;;33.08;11.35;;;;;;;;;;5036759;28;20159;-79
2022/10/29 00:43:35;;;;;;;22.20;10.82;;;;;;;;;;5034975;28;20045;-79
2022/10/29 00:46:06;;;;;;;26.23;11.60;;;;;;;;;;5035267;28;20052;-79
2022/10/29 00:48:39;;;;;;;23.88;11.60;;;;;;;;;;5035129;28;20041;-79
2022/10/29 00:51:06;;;;;;;29.98;13.02;;;;;;;;;;5035174;28;20045;-79
2022/10/29 00:53:34;;;;;;;65.70;13.68;;;;;;;;;;5050135;28;20128;-79
2022/10/29 00:56:00;;;;;;;53.05;12.35;;;;;;;;;;5035124;28;20061;-79
2022/10/29 00:58:27;;;;;;;29.50;10.75;;;;;;;;;;5033544;28;20524;-79
2022/10/29 01:00:53;;;;;;;54.70;12.40;;;;;;;;;;5035195;28;20041;-79
2022/10/29 01:03:19;;;;;;;67.88;13.30;;;;;;;;;;5030754;28;20049;-79
2022/10/29 01:05:46;;;;;;;57.60;12.40;;;;;;;;;;5015262;28;20049;-79
2022/10/29 01:08:13;;;;;;;39.42;10.73;;;;;;;;;;5015083;28;20065;-79
2022/10/29 01:10:57;;;;;;;35.72;10.30;;;;;;;;;;5014560;28;20045;-79
2022/10/29 01:13:35;;;;;;;31.55;11.13;;;;;;;;;;5014981;28;20061;-79
2022/10/29 01:16:17;;;;;;;30.77;10.30;;;;;;;;;;5014787;28;20092;-79
2022/10/29 01:18:47;;;;;;;32.63;10.25;;;;;;;;;;5025889;28;20053;-79
2022/10/29 01:21:19;;;;;;;28.48;10.13;;;;;;;;;;5016534;28;20041;-79
2022/10/29 01:24:02;;;;;;;28.48;9.98;;;;;;;;;;5034336;28;20045;-79
2022/10/29 01:26:43;;;;;;;31.00;9.93;;;;;;;;;;5034364;28;20049;-79
2022/10/29 01:29:15;;;;;;;35.80;10.80;;;;;;;;;;5033116;28;20049;-80
2022/10/29 01:31:48;;;;;;;36.60;9.75;;;;;;;;;;5034347;28;20109;-79
2022/10/29 01:34:26;;;;;;;30.90;10.18;;;;;;;;;;5034567;28;20477;-79
2022/10/29 01:36:59;;;;;;;29.10;10.27;;;;;;;;;;5034341;28;20048;-79
2022/10/29 01:39:38;;;;;;;29.75;9.40;;;;;;;;;;5034151;28;20052;-79
2022/10/29 01:42:12;;;;;;;35.97;10.73;;;;;;;;;;5034158;28;20447;-79
2022/10/29 01:44:43;;;;;;;58.42;11.68;;;;;;;;;;5033831;28;20508;-79
2022/10/29 01:47:12;;;;;;;53.53;10.82;;;;;;;;;;5034129;28;20045;-79
2022/10/29 01:49:40;;;;;;;40.22;10.10;;;;;;;;;;5034002;28;20091;-79
2022/10/29 01:52:08;;;;;;;55.75;11.70;;;;;;;;;;5032656;28;20045;-79
2022/10/29 01:54:34;;;;;;;68.80;10.50;;;;;;;;;;5033943;28;20041;-79
2022/10/29 01:57:00;;;;;;;44.00;11.07;;;;;;;;;;5034332;28;20041;-79
2022/10/29 01:59:28;;;;;;;36.00;10.23;;;;;;;;;;5035247;28;20041;-79
2022/10/29 02:01:58;;;;;;;29.67;10.32;;;;;;;;;;5036790;28;20088;-79
2022/10/29 02:04:30;;;;;;;24.55;9.77;;;;;;;;;;5036290;28;20124;-79
2022/10/29 02:06:56;;;;;;;22.17;9.15;;;;;;;;;;5013913;28;20046;-79
2022/10/29 02:09:25;;;;;;;35.67;9.77;;;;;;;;;;5014095;28;20077;-79
2022/10/29 02:11:54;;;;;;;36.83;9.38;;;;;;;;;;5014399;28;20042;-79
2022/10/29 02:14:29;;;;;;;35.03;8.25;;;;;;;;;;5033856;28;20041;-79
2022/10/29 02:16:56;;;;;;;25.42;8.25;;;;;;;;;;5033541;28;20091;-79
2022/10/29 02:19:22;;;;;;;35.33;9.10;;;;;;;;;;5032110;28;20510;-79
2022/10/29 02:21:50;;;;;;;45.17;10.30;;;;;;;;;;5033155;28;20132;-79
2022/10/29 02:24:16;;;;;;;50.70;10.40;;;;;;;;;;5029095;28;20053;-79
2022/10/29 02:26:42;;;;;;;29.55;9.30;;;;;;;;;;5013765;28;20041;-79
2022/10/29 02:29:08;;;;;;;21.70;8.88;;;;;;;;;;5013485;28;20397;-79
2022/10/29 02:31:35;;;;;;;35.90;9.55;;;;;;;;;;5012471;28;20401;-79
2022/10/29 02:34:01;;;;;;;63.88;11.65;;;;;;;;;;5013366;28;20054;-79
2022/10/29 02:36:27;;;;;;;32.15;8.98;;;;;;;;;;5014416;28;20046;-79
2022/10/29 02:38:53;;;;;;;24.27;7.93;;;;;;;;;;5028436;28;20060;-79
2022/10/29 02:41:19;;;;;;;41.78;8.55;;;;;;;;;;5033340;28;20401;-79
2022/10/29 02:43:45;;;;;;;36.67;8.48;;;;;;;;;;5033228;28;20041;-79
2022/10/29 02:46:15;;;;;;;50.33;9.85;;;;;;;;;;5032835;28;20519;-79
2022/10/29 02:48:42;;;;;;;35.03;9.15;;;;;;;;;;5033170;28;20052;-79
2022/10/29 02:51:08;;;;;;;30.95;8.55;;;;;;;;;;5033144;28;20127;-79
2022/10/29 02:53:34;;;;;;;31.25;8.63;;;;;;;;;;5031535;28;20049;-79
2022/10/29 02:56:00;;;;;;;38.83;9.15;;;;;;;;;;5032927;28;20396;-79
2022/10/29 02:58:26;;;;;;;79.68;11.88;;;;;;;;;;5033058;28;20552;-79
2022/10/29 03:00:52;;;;;;;65.35;10.25;;;;;;;;;;5033035;28;20444;-79
2022/10/29 03:03:18;;;;;;;24.33;8.35;;;;;;;;;;5033091;28;20037;-79
2022/10/29 03:05:44;;;;;;;117.63;13.13;;;;;;;;;;5032989;28;20104;-79
2022/10/29 03:08:10;;;;;;;84.72;11.65;;;;;;;;;;5035901;28;20064;-79
2022/10/29 03:10:36;;;;;;;43.75;9.23;;;;;;;;;;5036409;28;20049;-79
2022/10/29 03:13:02;;;;;;;77.03;10.90;;;;;;;;;;5036962;28;20052;-79
2022/10/29 03:15:29;;;;;;;49.42;9.40;;;;;;;;;;5036494;28;20436;-79
2022/10/29 03:17:55;;;;;;;97.03;11.73;;;;;;;;;;5036801;28;20141;-79
2022/10/29 03:20:21;;;;;;;45.95;8.82;;;;;;;;;;5036684;28;20137;-79
2022/10/29 03:22:47;;;;;;;36.75;8.80;;;;;;;;;;5036617;28;20053;-79
2022/10/29 03:25:13;;;;;;;38.95;9.05;;;;;;;;;;5036474;28;20049;-79
2022/10/29 03:27:42;;;;;;;36.60;9.10;;;;;;;;;;5036720;28;20052;-79
2022/10/29 03:30:09;;;;;;;47.22;9.27;;;;;;;;;;5035219;28;20041;-79
2022/10/29 03:32:39;;;;;;;66.07;10.98;;;;;;;;;;5036702;28;20037;-79
2022/10/29 03:35:05;;;;;;;54.00;9.60;;;;;;;;;;5036920;28;20508;-79
2022/10/29 03:37:31;;;;;;;44.13;9.98;;;;;;;;;;5036363;28;20042;-79
2022/10/29 03:39:57;;;;;;;41.17;8.57;;;;;;;;;;5031905;28;20041;-79
2022/10/29 03:42:23;;;;;;;48.13;9.60;;;;;;;;;;5016445;28;20046;-79
2022/10/29 03:44:49;;;;;;;61.40;10.88;;;;;;;;;;5016515;28;20049;-79
2022/10/29 03:47:15;;;;;;;39.70;9.00;;;;;;;;;;5016269;28;20511;-79
2022/10/29 03:49:41;;;;;;;38.65;9.40;;;;;;;;;;5016514;28;20045;-79
2022/10/29 03:52:07;;;;;;;81.80;12.02;;;;;;;;;;5028974;28;20037;-79
2022/10/29 03:54:33;;;;;;;63.13;11.77;;;;;;;;;;5036118;28;20095;-79
2022/10/29 03:56:59;;;;;;;97.68;13.88;;;;;;;;;;5035081;28;20052;-79
2022/10/29 03:59:25;;;;;;;58.42;10.60;;;;;;;;;;5036077;28;20052;-79
2022/10/29 04:01:51;;;;;;;74.05;10.68;;;;;;;;;;5036542;28;20049;-79
2022/10/29 04:04:17;;;;;;;87.03;10.50;;;;;;;;;;5036050;28;20049;-79
2022/10/29 04:06:43;;;;;;;71.18;10.82;;;;;;;;;;5035912;28;20049;-79
2022/10/29 04:09:09;;;;;;;73.05;11.00;;;;;;;;;;5035380;28;20042;-79
2022/10/29 04:11:35;;;;;;;62.72;10.02;;;;;;;;;;5034750;28;20056;-79
2022/10/29 04:14:01;;;;;;;71.00;10.05;;;;;;;;;;5035797;28;20049;-79
2022/10/29 04:16:27;;;;;;;82.65;10.90;;;;;;;;;;5035672;28;20049;-79
2022/10/29 04:18:53;;;;;;;56.15;9.02;;;;;;;;;;5034512;28;20041;-79
2022/10/29 04:21:19;;;;;;;60.10;9.60;;;;;;;;;;5035614;28;20069;-79
2022/10/29 04:23:45;;;;;;;68.30;9.68;;;;;;;;;;5035563;28;20045;-79
2022/10/29 04:26:11;;;;;;;53.47;9.02;;;;;;;;;;5036062;28;20049;-79
2022/10/29 04:28:38;;;;;;;45.80;9.70;;;;;;;;;;5035294;28;20058;-79
2022/10/29 04:31:09;;;;;;;47.72;9.23;;;;;;;;;;5035527;28;20049;-79
2022/10/29 04:33:35;;;;;;;46.33;10.05;;;;;;;;;;5035262;28;20045;-79
2022/10/29 04:36:01;;;;;;;48.80;9.88;;;;;;;;;;5035312;28;20041;-79
2022/10/29 04:38:27;;;;;;;42.95;9.95;;;;;;;;;;5035149;28;20042;-79
2022/10/29 04:40:57;;;;;;;121.97;13.65;;;;;;;;;;5035256;28;20052;-79
2022/10/29 04:43:23;;;;;;;46.58;10.73;;;;;;;;;;5034964;28;20431;-79
2022/10/29 04:45:55;;;;;;;68.25;11.30;;;;;;;;;;5034887;28;20089;-79
2022/10/29 04:48:22;;;;;;;91.45;12.05;;;;;;;;;;5034971;28;20128;-79
2022/10/29 04:50:48;;;;;;;76.18;11.25;;;;;;;;;;5035111;28;20056;-79
2022/10/29 04:53:14;;;;;;;56.55;10.40;;;;;;;;;;5034966;28;20095;-79
2022/10/29 04:55:40;;;;;;;74.63;13.65;;;;;;;;;;5034737;28;20400;-79
2022/10/29 04:58:07;;;;;;;53.67;11.52;;;;;;;;;;5034605;28;20498;-79
2022/10/29 05:00:33;;;;;;;106.35;13.65;;;;;;;;;;5035481;28;20051;-79
2022/10/29 05:03:00;;;;;;;100.00;14.27;;;;;;;;;;5034931;28;20128;-79
2022/10/29 05:05:26;;;;;;;82.50;12.55;;;;;;;;;;5034822;28;20050;-79
2022/10/29 05:07:58;;;;;;;83.18;12.18;;;;;;;;;;5034552;28;20211;-79
2022/10/29 05:10:28;;;;;;;95.90;13.75;;;;;;;;;;5034565;28;20049;-79
2022/10/29 05:13:01;;;;;;;106.03;14.10;;;;;;;;;;5034729;28;20044;-79
2022/10/29 05:15:28;;;;;;;150.40;16.55;;;;;;;;;;5034708;28;20045;-79
2022/10/29 05:17:55;;;;;;;148.25;16.63;;;;;;;;;;5035215;28;20046;-79
2022/10/29 05:20:21;;;;;;;165.68;17.30;;;;;;;;;;5034907;28;20072;-80
2022/10/29 05:22:47;;;;;;;117.50;15.05;;;;;;;;;;5034304;28;20477;-79
2022/10/29 05:25:13;;;;;;;169.18;17.13;;;;;;;;;;5034572;28;20059;-79
2022/10/29 05:27:39;;;;;;;126.47;15.65;;;;;;;;;;5039120;28;20045;-79
2022/10/29 05:30:06;;;;;;;122.93;15.80;;;;;;;;;;5041062;28;20124;-80
2022/10/29 05:32:32;;;;;;;138.38;16.73;;;;;;;;;;5039900;28;20459;-79
2022/10/29 05:34:58;;;;;;;109.57;13.55;;;;;;;;;;5043088;28;20045;-80
2022/10/29 05:37:26;;;;;;;149.40;15.63;;;;;;;;;;5042362;28;20500;-80
2022/10/29 05:39:52;;;;;;;84.85;13.43;;;;;;;;;;5038278;28;20049;-79
2022/10/29 05:42:18;;;;;;;121.80;15.65;;;;;;;;;;5035410;28;20046;-79
2022/10/29 05:44:44;;;;;;;108.90;15.27;;;;;;;;;;5034170;28;20047;-79
2022/10/29 05:47:10;;;;;;;125.65;17.17;;;;;;;;;;5034257;28;20395;-79
2022/10/29 05:49:36;;;;;;;91.60;15.43;;;;;;;;;;5034024;28;20048;-79
2022/10/29 05:52:02;;;;;;;138.75;19.48;;;;;;;;;;5034086;28;20041;-79
2022/10/29 05:54:28;;;;;;;138.13;18.88;;;;;;;;;;5033679;28;20496;-79
2022/10/29 05:56:54;;;;;;;94.05;15.00;;;;;;;;;;5033831;28;20485;-79
2022/10/29 05:59:21;;;;;;;83.95;14.50;;;;;;;;;;5034505;28;20041;-79
2022/10/29 06:01:47;;;;;;;109.97;15.48;;;;;;;;;;5034377;28;20048;-79
2022/10/29 06:04:13;;;;;;;92.65;14.90;;;;;;;;;;5033704;28;20435;-79
2022/10/29 06:06:39;;;;;;;82.57;14.25;;;;;;;;;;5033509;28;20042;-79
2022/10/29 06:09:05;;;;;;;83.00;14.38;;;;;;;;;;5033452;28;20060;-79
2022/10/29 06:11:31;;;;;;;84.45;14.35;;;;;;;;;;5032934;28;20546;-78
2022/10/29 06:13:57;;;;;;;109.00;15.25;;;;;;;;;;5034034;28;20377;-81
2022/10/29 06:16:23;;;;;;;75.38;13.45;;;;;;;;;;5034297;28;20124;-79
2022/10/29 06:18:49;;;;;;;74.40;13.15;;;;;;;;;;5034001;28;20103;-81
2022/10/29 06:21:15;;;;;;;75.20;12.90;;;;;;;;;;5033593;28;20383;-81
2022/10/29 06:23:41;;;;;;;107.50;14.70;;;;;;;;;;5033372;28;20499;-82
2022/10/29 06:26:07;;;;;;;95.88;13.95;;;;;;;;;;5032243;28;20053;-82
2022/10/29 06:28:33;;;;;;;146.32;15.63;;;;;;;;;;5033198;28;20469;-82
2022/10/29 06:30:59;;;;;;;120.28;14.38;;;;;;;;;;5033955;28;20064;-81
2022/10/29 06:33:25;;;;;;;85.82;11.15;;;;;;;;;;5033182;28;20497;-78
2022/10/29 06:35:51;;;;;;;145.45;14.98;;;;;;;;;;5031857;28;20512;-79
2022/10/29 06:38:17;;;;;;;97.22;12.32;;;;;;;;;;5012154;28;20390;-78
2022/10/29 06:40:51;;;;;;;132.48;13.63;;;;;;;;;;5021978;28;20072;-78
2022/10/29 06:43:17;;;;;;;115.65;12.88;;;;;;;;;;5032700;28;20047;-79
2022/10/29 06:45:43;;;;;;;180.73;15.07;;;;;;;;;;5032924;28;20046;-79
2022/10/29 06:48:09;;;;;;;185.48;16.60;;;;;;;;;;5033126;28;20047;-78
2022/10/29 06:50:35;;;;;;;164.52;15.48;;;;;;;;;;5032930;28;20132;-79
2022/10/29 06:53:02;;;;;;;198.38;16.05;;;;;;;;;;5031514;28;20540;-78
2022/10/29 06:55:28;;;;;;;146.80;15.18;;;;;;;;;;5033157;28;20073;-78
2022/10/29 06:58:21;;;;;;;169.07;17.67;;;;;;;;;;5033246;28;20124;-79
2022/10/29 07:00:47;;;;;;;182.77;17.58;;;;;;;;;;5030332;28;20593;-80
2022/10/29 07:03:14;;;;;;;135.30;16.80;;;;;;;;;;5032865;28;20084;-79
2022/10/29 07:05:40;;;;;;;58.03;11.45;;;;;;;;;;5032748;28;20060;-80
2022/10/29 07:08:06;;;;;;;132.73;16.77;;;;;;;;;;5031535;28;20052;-79
2022/10/29 07:10:33;;;;;;;140.18;17.85;;;;;;;;;;5032628;28;20115;-80
2022/10/29 07:12:59;;;;;;;197.48;17.98;;;;;;;;;;5032943;28;20056;-78
2022/10/29 07:15:26;;;;;;;170.68;17.02;;;;;;;;;;5033012;28;20045;-79
2022/10/29 07:18:05;;;;;;;145.15;15.55;;;;;;;;;;5032458;28;20124;-79
2022/10/29 07:20:33;;;;;;;159.98;18.60;;;;;;;;;;5031474;28;20527;-77
2022/10/29 07:23:00;;;;;;;157.35;16.05;;;;;;;;;;5014952;28;20412;-83
2022/10/29 07:25:26;;;;;;;96.00;14.10;;;;;;;;;;5033701;28;20045;-78
2022/10/29 07:27:52;;;;;;;97.03;14.27;;;;;;;;;;5031499;28;20141;-77
2022/10/29 07:30:18;;;;;;;84.95;12.90;;;;;;;;;;5033362;28;20053;-77
2022/10/29 07:32:44;;;;;;;123.63;15.50;;;;;;;;;;5042746;28;20557;-77
2022/10/29 07:35:10;;;;;;;96.95;14.27;;;;;;;;;;5023775;28;20397;-77
2022/10/29 07:37:36;;;;;;;190.88;19.92;;;;;;;;;;5013055;28;20057;-77
2022/10/29 07:40:03;;;;;;;96.57;13.93;;;;;;;;;;5024145;28;20131;-76
2022/10/29 07:42:29;;;;;;;105.82;14.88;;;;;;;;;;5012725;28;20049;-77
2022/10/29 07:44:55;;;;;;;120.40;15.55;;;;;;;;;;5013031;28;20046;-77
2022/10/29 07:47:21;;;;;;;113.18;15.75;;;;;;;;;;5013970;28;20132;-76
2022/10/29 07:49:47;;;;;;;172.05;17.73;;;;;;;;;;5011649;28;20114;-79
2022/10/29 07:52:13;;;;;;;187.63;21.50;;;;;;;;;;5015874;28;20172;-77
2022/10/29 07:54:39;;;;;;;158.30;17.70;;;;;;;;;;5020504;28;20042;-83
2022/10/29 07:57:05;;;;;;;81.82;14.35;;;;;;;;;;5055450;28;20051;-79
2022/10/29 07:59:31;;;;;;;114.60;16.38;;;;;;;;;;5035955;28;20105;-78
2022/10/29 08:01:57;;;;;;;75.85;15.00;;;;;;;;;;5036102;28;20516;-78
2022/10/29 08:04:23;;;;;;;81.82;15.23;;;;;;;;;;5035749;28;20061;-78
2022/10/29 08:06:49;;;;;;;60.60;14.52;;;;;;;;;;5035957;28;20104;-78
2022/10/29 08:09:15;;;;;;;56.63;13.68;;;;;;;;;;5035409;28;20044;-78
2022/10/29 08:11:41;;;;;;;60.35;14.55;;;;;;;;;;5016373;28;20049;-78
2022/10/29 08:14:07;;;;;;;93.00;15.75;;;;;;;;;;5043566;28;20204;-78
2022/10/29 08:16:33;;;;;;;80.70;14.27;;;;;;;;;;5055455;28;20532;-78
2022/10/29 08:19:00;;;;;;;72.47;14.35;;;;;;;;;;5050169;28;20046;-78
2022/10/29 08:21:26;;;;;;;70.97;13.52;;;;;;;;;;5035539;28;20049;-78
2022/10/29 08:23:52;;;;;;;101.85;15.40;;;;;;;;;;5034685;28;20054;-78
2022/10/29 08:26:19;;;;;;;76.75;13.52;;;;;;;;;;5035233;28;20045;-78
2022/10/29 08:28:45;;;;;;;79.07;14.85;;;;;;;;;;5027761;28;20124;-78
2022/10/29 08:31:11;;;;;;;66.07;14.43;;;;;;;;;;5014183;28;20080;-78
2022/10/29 08:33:37;;;;;;;49.90;13.10;;;;;;;;;;5015527;28;20128;-78
2022/10/29 08:36:03;;;;;;;65.50;13.20;;;;;;;;;;5021326;28;20096;-78
2022/10/29 08:38:29;;;;;;;88.40;16.80;;;;;;;;;;5035611;28;20042;-77
2022/10/29 08:41:03;;;;;;;101.22;16.02;;;;;;;;;;5034050;28;20084;-80
2022/10/29 08:43:48;;;;;;;61.65;15.68;;;;;;;;;;5017410;28;20048;-78
2022/10/29 08:46:20;;;;;;;48.22;13.77;;;;;;;;;;5013974;28;20515;-78
2022/10/29 08:48:53;;;;;;;87.28;16.70;;;;;;;;;;5018147;28;20042;-76
2022/10/29 08:51:22;;;;;;;56.83;15.65;;;;;;;;;;5035228;28;20085;-78
2022/10/29 08:53:49;;;;;;;73.50;18.42;;;;;;;;;;5038096;28;20049;-77
2022/10/29 08:56:28;;;;;;;64.35;18.10;;;;;;;;;;5037981;28;20052;-78
2022/10/29 08:58:56;;;;;;;63.55;18.88;;;;;;;;;;5038839;28;20087;-80
2022/10/29 09:01:22;;;;;;;60.17;17.85;;;;;;;;;;5035005;28;20077;-77
2022/10/29 09:03:49;;;;;;;54.05;16.38;;;;;;;;;;5034565;28;20081;-80
2022/10/29 09:06:32;;;;;;;69.15;19.05;;;;;;;;;;5034260;28;20053;-77
2022/10/29 09:09:21;;;;;;;57.85;19.05;;;;;;;;;;5035083;28;20044;-77
2022/10/29 09:11:50;;;;;;;59.28;19.33;;;;;;;;;;4974437;28;20051;-79
2022/10/29 09:14:24;;;;;;;58.50;18.65;;;;;;;;;;4958141;28;20449;-79
2022/10/29 09:16:50;;;;;;;54.33;17.95;;;;;;;;;;4957919;28;20055;-81
2022/10/29 09:19:19;;;;;;;47.42;18.05;;;;;;;;;;4973712;28;20427;-82
2022/10/29 09:21:50;;;;;;;55.33;19.38;;;;;;;;;;4973673;28;20054;-81
2022/10/29 09:24:34;;;;;;;46.00;15.82;;;;;;;;;;4973571;28;20066;-81
2022/10/29 09:27:02;;;;;;;54.80;18.52;;;;;;;;;;4973522;28;20050;-81
2022/10/29 09:29:54;;;;;;;48.22;17.08;;;;;;;;;;4973223;28;20084;-81
2022/10/29 09:32:20;;;;;;;49.55;17.85;;;;;;;;;;4972372;28;20138;-81
2022/10/29 09:34:48;;;;;;;58.55;20.30;;;;;;;;;;4973271;28;20118;-81
2022/10/29 09:37:17;;;;;;;53.55;17.40;;;;;;;;;;4972935;28;20054;-81
2022/10/29 09:39:44;;;;;;;53.47;18.95;;;;;;;;;;4972903;28;20524;-81
2022/10/29 09:42:12;;;;;;;47.92;17.85;;;;;;;;;;4973016;28;20529;-81
2022/10/29 09:44:44;;;;;;;53.22;18.95;;;;;;;;;;4972900;28;20043;-81
2022/10/29 09:47:16;;;;;;;46.10;18.40;;;;;;;;;;4973066;28;20498;-82
2022/10/29 09:49:51;;;;;;;52.90;19.23;;;;;;;;;;5026905;28;20054;-79
2022/10/29 09:52:22;;;;;;;68.60;20.77;;;;;;;;;;5034010;28;20125;-79
2022/10/29 09:54:49;;;;;;;55.53;22.15;;;;;;;;;;5032510;28;20477;-79
2022/10/29 09:57:23;;;;;;;44.50;19.45;;;;;;;;;;5024416;28;20045;-79
2022/10/29 09:59:57;;;;;;;47.58;20.05;;;;;;;;;;5019797;28;20124;-79
2022/10/29 10:02:29;;;;;;;51.97;20.33;;;;;;;;;;5033483;28;20046;-80
2022/10/29 10:04:56;;;;;;;49.10;20.33;;;;;;;;;;5033311;28;20427;-80
2022/10/29 10:07:22;;;;;;;48.00;19.63;;;;;;;;;;5033863;28;20053;-80
2022/10/29 10:09:54;;;;;;;48.40;19.52;;;;;;;;;;5033240;28;20084;-79
2022/10/29 10:12:44;;;;;;;43.90;19.55;;;;;;;;;;5033579;28;20049;-77
2022/10/29 10:15:16;;;;;;;43.38;20.20;;;;;;;;;;5028703;28;20092;-79
2022/10/29 10:17:55;;;;;;;36.08;17.05;;;;;;;;;;5034153;28;20038;-83
2022/10/29 10:20:26;;;;;;;38.42;17.50;;;;;;;;;;5033737;28;20095;-77
2022/10/29 10:22:52;;;;;;;40.67;18.15;;;;;;;;;;5033739;28;20095;-78
2022/10/29 10:25:38;;;;;;;43.72;17.90;;;;;;;;;;5032223;28;20049;-78
2022/10/29 10:28:16;;;;;;;38.40;17.15;;;;;;;;;;5032746;28;20049;-78
2022/10/29 10:30:42;;;;;;;35.33;18.13;;;;;;;;;;5033479;28;20103;-77
2022/10/29 10:33:26;;;;;;;31.42;17.85;;;;;;;;;;5033487;28;20073;-78
2022/10/29 10:35:53;;;;;;;33.30;19.13;;;;;;;;;;5031903;28;20464;-78
2022/10/29 10:38:20;;;;;;;36.97;18.58;;;;;;;;;;5031339;28;20477;-79
2022/10/29 10:41:04;;;;;;;39.22;18.58;;;;;;;;;;5033616;28;20124;-78
2022/10/29 10:43:30;;;;;;;35.75;17.45;;;;;;;;;;5033172;28;20052;-79
2022/10/29 10:45:58;;;;;;;35.35;17.23;;;;;;;;;;5033901;28;20041;-77
2022/10/29 10:48:26;;;;;;;34.92;17.20;;;;;;;;;;5033279;28;20045;-77
2022/10/29 10:51:08;;;;;;;37.20;19.15;;;;;;;;;;5033231;28;20054;-78
2022/10/29 10:53:34;;;;;;;34.67;17.05;;;;;;;;;;5032965;28;20109;-78
2022/10/29 10:56:00;;;;;;;28.17;16.95;;;;;;;;;;5033235;28;20046;-78
2022/10/29 10:58:34;;;;;;;26.95;16.15;;;;;;;;;;5033039;28;20045;-78
2022/10/29 11:01:05;;;;;;;29.83;17.23;;;;;;;;;;5033199;28;20053;-83
2022/10/29 11:03:31;;;;;;;29.65;16.58;;;;;;;;;;5033068;28;20042;-79
2022/10/29 11:06:06;;;;;;;34.35;17.05;;;;;;;;;;5033293;28;20065;-79
2022/10/29 11:08:38;;;;;;;26.50;16.50;;;;;;;;;;5028500;28;20052;-82
2022/10/29 11:11:10;;;;;;;30.02;16.30;;;;;;;;;;5032751;28;20639;-81
2022/10/29 11:13:39;;;;;;;28.77;15.50;;;;;;;;;;5033467;28;20056;-83
2022/10/29 11:16:17;;;;;;;30.85;16.70;;;;;;;;;;5031439;28;20049;-80
2022/10/29 11:18:55;;;;;;;24.65;15.55;;;;;;;;;;5041928;28;20093;-79
2022/10/29 11:21:29;;;;;;;26.05;14.80;;;;;;;;;;5056925;28;20052;-77
2022/10/29 11:24:21;;;;;;;28.65;15.15;;;;;;;;;;5055990;28;20047;-77
2022/10/29 11:26:55;;;;;;;26.77;14.20;;;;;;;;;;5007233;28;20053;-80
2022/10/29 11:29:21;;;;;;;27.90;14.35;;;;;;;;;;5035401;28;20380;-80
2022/10/29 11:31:59;;;;;;;27.27;14.25;;;;;;;;;;5037093;28;20049;-80
2022/10/29 11:34:25;;;;;;;25.75;14.15;;;;;;;;;;5036557;28;20053;-80
2022/10/29 11:37:14;;;;;;;20.92;12.63;;;;;;;;;;5036686;28;20373;-80
2022/10/29 11:40:00;;;;;;;23.63;13.23;;;;;;;;;;5031074;28;20132;-80
2022/10/29 11:42:26;;;;;;;23.70;12.77;;;;;;;;;;5028999;28;20053;-80
2022/10/29 11:44:52;;;;;;;22.35;13.07;;;;;;;;;;5035179;28;20080;-80
2022/10/29 11:47:23;;;;;;;24.30;12.70;;;;;;;;;;5036346;28;20042;-81
2022/10/29 11:50:11;;;;;;;21.10;12.38;;;;;;;;;;5036261;28;20045;-81
2022/10/29 11:52:44;;;;;;;19.48;11.85;;;;;;;;;;5036199;28;20037;-80
2022/10/29 11:55:10;;;;;;;22.02;12.68;;;;;;;;;;5035066;28;20053;-81
2022/10/29 11:57:43;;;;;;;22.85;12.90;;;;;;;;;;5035877;28;20041;-80
2022/10/29 12:00:31;;;;;;;25.20;12.10;;;;;;;;;;5036095;28;20049;-80
2022/10/29 12:02:57;;;;;;;19.38;11.48;;;;;;;;;;5036155;28;20094;-81
2022/10/29 12:05:26;;;;;;;22.67;12.65;;;;;;;;;;5035768;28;20124;-80
2022/10/29 12:08:15;;;;;;;21.92;11.95;;;;;;;;;;5035967;28;20052;-80
2022/10/29 12:11:02;;;;;;;19.17;11.95;;;;;;;;;;5033928;28;20054;-80
2022/10/29 12:13:31;;;;;;;19.77;11.57;;;;;;;;;;5035699;28;20469;-80
2022/10/29 12:16:07;;;;;;;23.98;12.32;;;;;;;;;;5035763;28;20096;-80
2022/10/29 12:18:36;;;;;;;20.90;11.48;;;;;;;;;;5035997;28;20053;-80
2022/10/29 12:21:09;;;;;;;17.45;11.07;;;;;;;;;;5037500;28;20040;-80
2022/10/29 12:23:44;;;;;;;21.20;12.07;;;;;;;;;;5037369;28;20037;-81
2022/10/29 12:26:17;;;;;;;21.58;11.88;;;;;;;;;;5035600;28;20042;-80
2022/10/29 12:28:57;;;;;;;24.42;12.35;;;;;;;;;;5035877;28;20060;-80
2022/10/29 12:31:33;;;;;;;20.33;11.05;;;;;;;;;;5035738;28;20042;-80
2022/10/29 12:34:12;;;;;;;20.27;10.43;;;;;;;;;;5035560;28;20048;-80
2022/10/29 12:37:02;;;;;;;20.75;11.13;;;;;;;;;;5035395;28;20034;-80
2022/10/29 12:39:34;;;;;;;19.95;11.13;;;;;;;;;;5031078;28;20053;-79
2022/10/29 12:42:02;;;;;;;19.13;11.55;;;;;;;;;;5035237;28;20045;-80
2022/10/29 12:44:40;;;;;;;28.20;11.80;;;;;;;;;;5035690;28;20048;-79
2022/10/29 12:47:24;;;;;;;18.63;11.65;;;;;;;;;;5017164;28;20045;-79
2022/10/29 12:49:50;;;;;;;17.33;11.18;;;;;;;;;;5015659;28;20096;-79
2022/10/29 12:52:16;;;;;;;20.80;11.23;;;;;;;;;;5015902;28;20080;-78
2022/10/29 12:54:46;;;;;;;21.00;11.80;;;;;;;;;;5038198;28;20045;-79
2022/10/29 12:57:12;;;;;;;20.42;11.32;;;;;;;;;;5018100;28;20545;-79
2022/10/29 12:59:39;;;;;;;20.38;11.63;;;;;;;;;;5013597;28;20157;-79
2022/10/29 13:02:24;;;;;;;21.00;11.57;;;;;;;;;;5014955;28;20053;-79
2022/10/29 13:05:05;;;;;;;21.25;13.30;;;;;;;;;;5014794;28;20575;-79
2022/10/29 13:07:32;;;;;;;20.00;11.30;;;;;;;;;;5020827;28;20512;-78
2022/10/29 13:10:17;;;;;;;21.27;12.43;;;;;;;;;;5034755;28;20049;-78
2022/10/29 13:12:54;;;;;;;21.17;11.75;;;;;;;;;;5034757;28;20050;-79
2022/10/29 13:15:27;;;;;;;19.63;12.30;;;;;;;;;;5028996;28;20041;-79
2022/10/29 13:17:55;;;;;;;21.83;12.52;;;;;;;;;;5025046;28;20041;-79
2022/10/29 13:20:26;;;;;;;21.33;12.63;;;;;;;;;;5034769;28;20106;-78
2022/10/29 13:22:52;;;;;;;22.73;12.80;;;;;;;;;;5019178;28;20080;-78
2022/10/29 13:25:29;;;;;;;19.20;12.13;;;;;;;;;;5028974;28;20041;-79
2022/10/29 13:27:55;;;;;;;19.92;11.93;;;;;;;;;;5027587;28;20449;-79
2022/10/29 13:30:24;;;;;;;23.17;13.05;;;;;;;;;;5033347;28;20060;-79
2022/10/29 13:32:50;;;;;;;23.77;12.60;;;;;;;;;;5025707;28;20049;-78
2022/10/29 13:35:16;;;;;;;24.25;12.65;;;;;;;;;;5034262;28;20112;-78
2022/10/29 13:37:45;;;;;;;17.85;11.88;;;;;;;;;;5034141;28;20140;-79
2022/10/29 13:40:21;;;;;;;19.42;12.25;;;;;;;;;;5034155;28;20049;-79
2022/10/29 13:42:56;;;;;;;23.30;12.45;;;;;;;;;;5034215;28;20052;-79
2022/10/29 13:45:22;;;;;;;21.83;13.48;;;;;;;;;;5034670;28;20506;-79
2022/10/29 13:47:49;;;;;;;21.83;12.98;;;;;;;;;;5034332;28;20085;-79
2022/10/29 13:50:17;;;;;;;22.10;13.23;;;;;;;;;;5032378;28;20049;-79
2022/10/29 13:52:45;;;;;;;19.67;12.32;;;;;;;;;;5033764;28;20052;-79
2022/10/29 13:55:14;;;;;;;28.40;13.25;;;;;;;;;;5034150;28;20104;-80
2022/10/29 13:57:49;;;;;;;20.35;12.48;;;;;;;;;;5035379;28;20046;-87
2022/10/29 14:00:19;;;;;;;25.55;13.05;;;;;;;;;;5034018;28;20049;-86
2022/10/29 14:03:10;;;;;;;22.30;13.05;;;;;;;;;;5034052;28;20051;-86
2022/10/29 14:05:44;;;;;;;29.92;13.50;;;;;;;;;;5018340;28;20119;-86
2022/10/29 14:08:19;;;;;;;31.08;13.98;;;;;;;;;;5027864;28;20121;-86
2022/10/29 14:10:46;;;;;;;22.43;13.83;;;;;;;;;;5034355;28;20456;-85
2022/10/29 14:13:23;;;;;;;22.75;13.43;;;;;;;;;;5037012;28;20057;-86
2022/10/29 14:16:05;;;;;;;19.05;12.38;;;;;;;;;;5035240;28;20123;-80
2022/10/29 14:18:31;;;;;;;23.67;13.60;;;;;;;;;;5034105;28;20132;-81
2022/10/29 14:20:58;;;;;;;23.73;12.82;;;;;;;;;;5023641;28;20088;-81
2022/10/29 14:23:25;;;;;;;19.67;11.73;;;;;;;;;;5033730;28;20046;-81
2022/10/29 14:25:51;;;;;;;18.83;11.25;;;;;;;;;;5033740;28;20076;-81
2022/10/29 14:28:19;;;;;;;23.83;12.18;;;;;;;;;;5033735;28;20588;-81
2022/10/29 14:30:46;;;;;;;23.00;13.05;;;;;;;;;;5033873;28;20045;-81